sensor_id;sensor_type;location;lat;lon;timestamp;pressure;altitude;pressure_sealevel;temperature;humidity
56074;BME280;41950;55.840;37.442;2024-03-25T00:00:32;97870.34;;;3.37;92.04
56074;BME280;41950;55.840;37.442;2024-03-25T00:02:57;97867.97;;;3.27;92.04
56074;BME280;41950;55.840;37.442;2024-03-25T00:05:23;97901.81;;;3.46;92.29
56074;BME280;41950;55.840;37.442;2024-03-25T00:07:51;97899.41;;;3.38;92.26
56074;BME280;41950;55.840;37.442;2024-03-25T00:10:18;97879.31;;;3.12;91.69
56074;BME280;41950;55.840;37.442;2024-03-25T00:12:49;97915.66;;;3.37;91.96
56074;BME280;41950;55.840;37.442;2024-03-25T00:15:18;97930.19;;;3.36;92.11
56074;BME280;41950;55.840;37.442;2024-03-25T00:17:45;97905.00;;;3.09;91.22
56074;BME280;41950;55.840;37.442;2024-03-25T00:20:13;97943.22;;;3.23;91.89
56074;BME280;41950;55.840;37.442;2024-03-25T00:22:38;97927.22;;;3.08;92.04
56074;BME280;41950;55.840;37.442;2024-03-25T00:25:04;97912.88;;;2.97;91.54
56074;BME280;41950;55.840;37.442;2024-03-25T00:27:30;97934.94;;;3.07;91.86
56074;BME280;41950;55.840;37.442;2024-03-25T00:29:56;97958.94;;;3.03;92.45
56074;BME280;41950;55.840;37.442;2024-03-25T00:32:21;97917.47;;;2.73;92.70
56074;BME280;41950;55.840;37.442;2024-03-25T00:34:47;97946.44;;;2.80;93.25
56074;BME280;41950;55.840;37.442;2024-03-25T00:37:13;97947.34;;;2.77;93.20
56074;BME280;41950;55.840;37.442;2024-03-25T00:39:40;97964.41;;;2.78;92.91
56074;BME280;41950;55.840;37.442;2024-03-25T00:42:05;97834.91;;;1.98;93.23
56074;BME280;41950;55.840;37.442;2024-03-25T00:44:31;97956.94;;;2.60;93.71
56074;BME280;41950;55.840;37.442;2024-03-25T00:46:57;97969.75;;;2.60;94.41
56074;BME280;41950;55.840;37.442;2024-03-25T00:49:22;97959.63;;;2.53;94.40
56074;BME280;41950;55.840;37.442;2024-03-25T00:51:48;97955.38;;;2.52;95.24
56074;BME280;41950;55.840;37.442;2024-03-25T00:54:14;97967.94;;;2.68;95.11
56074;BME280;41950;55.840;37.442;2024-03-25T00:56:39;97912.13;;;2.29;95.03
56074;BME280;41950;55.840;37.442;2024-03-25T00:59:05;97808.00;;;1.66;94.09
56074;BME280;41950;55.840;37.442;2024-03-25T01:01:32;97981.59;;;2.67;94.50
56074;BME280;41950;55.840;37.442;2024-03-25T01:03:58;97935.00;;;2.41;94.81
56074;BME280;41950;55.840;37.442;2024-03-25T01:06:24;97960.47;;;2.53;94.79
56074;BME280;41950;55.840;37.442;2024-03-25T01:08:50;98003.78;;;2.68;94.76
56074;BME280;41950;55.840;37.442;2024-03-25T01:11:16;97975.91;;;2.48;95.12
56074;BME280;41950;55.840;37.442;2024-03-25T01:13:42;97992.94;;;2.50;94.66
56074;BME280;41950;55.840;37.442;2024-03-25T01:16:08;98000.59;;;2.53;95.39
56074;BME280;41950;55.840;37.442;2024-03-25T01:18:35;97993.03;;;2.40;95.61
56074;BME280;41950;55.840;37.442;2024-03-25T01:21:01;98005.75;;;2.46;95.55
56074;BME280;41950;55.840;37.442;2024-03-25T01:23:27;98020.22;;;2.54;95.81
56074;BME280;41950;55.840;37.442;2024-03-25T01:25:52;97973.63;;;2.23;95.90
56074;BME280;41950;55.840;37.442;2024-03-25T01:28:18;98035.56;;;2.54;95.40
56074;BME280;41950;55.840;37.442;2024-03-25T01:30:44;98016.03;;;2.43;94.73
56074;BME280;41950;55.840;37.442;2024-03-25T01:33:09;97988.81;;;2.38;94.81
56074;BME280;41950;55.840;37.442;2024-03-25T01:35:35;97955.75;;;2.20;95.13
56074;BME280;41950;55.840;37.442;2024-03-25T01:38:01;97991.34;;;2.39;94.87
56074;BME280;41950;55.840;37.442;2024-03-25T01:40:26;97969.28;;;2.29;94.74
56074;BME280;41950;55.840;37.442;2024-03-25T01:42:59;97961.78;;;2.12;94.81
56074;BME280;41950;55.840;37.442;2024-03-25T01:45:27;97970.34;;;2.11;93.84
56074;BME280;41950;55.840;37.442;2024-03-25T01:47:53;98028.00;;;2.43;93.95
56074;BME280;41950;55.840;37.442;2024-03-25T01:50:20;98014.41;;;2.38;93.56
56074;BME280;41950;55.840;37.442;2024-03-25T01:52:47;98028.84;;;2.43;93.63
56074;BME280;41950;55.840;37.442;2024-03-25T01:55:17;98033.94;;;2.48;93.03
56074;BME280;41950;55.840;37.442;2024-03-25T01:57:47;98017.94;;;2.29;92.55
56074;BME280;41950;55.840;37.442;2024-03-25T02:00:14;98041.63;;;2.48;92.55
56074;BME280;41950;55.840;37.442;2024-03-25T02:02:42;98007.69;;;2.29;91.71
56074;BME280;41950;55.840;37.442;2024-03-25T02:05:10;98051.00;;;2.49;91.09
56074;BME280;41950;55.840;37.442;2024-03-25T02:07:36;98058.69;;;2.49;91.26
56074;BME280;41950;55.840;37.442;2024-03-25T02:10:05;98065.47;;;2.53;91.55
56074;BME280;41950;55.840;37.442;2024-03-25T02:12:31;98006.06;;;2.19;91.13
56074;BME280;41950;55.840;37.442;2024-03-25T02:14:58;98068.91;;;2.51;91.13
56074;BME280;41950;55.840;37.442;2024-03-25T02:17:24;98067.16;;;2.53;91.38
56074;BME280;41950;55.840;37.442;2024-03-25T02:19:51;98048.59;;;2.32;90.67
56074;BME280;41950;55.840;37.442;2024-03-25T02:22:16;98079.19;;;2.44;90.60
56074;BME280;41950;55.840;37.442;2024-03-25T02:24:45;98028.34;;;2.09;90.89
56074;BME280;41950;55.840;37.442;2024-03-25T02:27:11;98075.09;;;2.28;91.07
56074;BME280;41950;55.840;37.442;2024-03-25T02:29:40;98083.59;;;2.33;91.61
56074;BME280;41950;55.840;37.442;2024-03-25T02:32:09;98074.34;;;2.20;91.70
56074;BME280;41950;55.840;37.442;2024-03-25T02:34:37;98021.72;;;1.90;91.84
56074;BME280;41950;55.840;37.442;2024-03-25T02:37:03;98088.75;;;2.29;91.97
56074;BME280;41950;55.840;37.442;2024-03-25T02:39:29;98097.28;;;2.29;92.00
56074;BME280;41950;55.840;37.442;2024-03-25T02:41:55;98023.63;;;1.70;92.41
56074;BME280;41950;55.840;37.442;2024-03-25T02:44:23;98077.00;;;2.08;92.48
56074;BME280;41950;55.840;37.442;2024-03-25T02:46:49;98127.16;;;2.29;92.63
56074;BME280;41950;55.840;37.442;2024-03-25T02:49:15;98105.06;;;2.17;92.42
56074;BME280;41950;55.840;37.442;2024-03-25T02:51:40;98090.63;;;2.10;92.46
56074;BME280;41950;55.840;37.442;2024-03-25T02:54:06;98139.09;;;2.30;92.80
56074;BME280;41950;55.840;37.442;2024-03-25T02:56:34;98135.69;;;2.28;92.78
56074;BME280;41950;55.840;37.442;2024-03-25T02:59:00;98143.25;;;2.40;92.63
56074;BME280;41950;55.840;37.442;2024-03-25T03:01:26;98123.81;;;2.21;91.83
56074;BME280;41950;55.840;37.442;2024-03-25T03:03:51;98095.88;;;1.96;91.84
56074;BME280;41950;55.840;37.442;2024-03-25T03:06:17;98160.34;;;2.36;91.72
56074;BME280;41950;55.840;37.442;2024-03-25T03:08:44;98145.13;;;2.23;91.58
56074;BME280;41950;55.840;37.442;2024-03-25T03:11:10;98162.19;;;2.24;91.35
56074;BME280;41950;55.840;37.442;2024-03-25T03:13:36;98142.59;;;2.20;91.48
56074;BME280;41950;55.840;37.442;2024-03-25T03:16:01;98100.13;;;1.97;91.68
56074;BME280;41950;55.840;37.442;2024-03-25T03:18:27;98174.84;;;2.39;91.48
56074;BME280;41950;55.840;37.442;2024-03-25T03:20:53;98169.78;;;2.33;91.12
56074;BME280;41950;55.840;37.442;2024-03-25T03:23:24;98112.97;;;1.93;91.38
56074;BME280;41950;55.840;37.442;2024-03-25T03:25:50;98178.28;;;2.35;91.58
56074;BME280;41950;55.840;37.442;2024-03-25T03:28:17;98142.59;;;2.21;91.06
56074;BME280;41950;55.840;37.442;2024-03-25T03:30:42;98198.69;;;2.47;91.04
56074;BME280;41950;55.840;37.442;2024-03-25T03:33:08;98094.31;;;1.78;90.26
56074;BME280;41950;55.840;37.442;2024-03-25T03:35:34;98179.97;;;2.36;90.45
56074;BME280;41950;55.840;37.442;2024-03-25T03:38:00;98190.13;;;2.46;90.04
56074;BME280;41950;55.840;37.442;2024-03-25T03:40:26;98167.22;;;2.31;89.57
56074;BME280;41950;55.840;37.442;2024-03-25T03:42:51;98182.53;;;2.37;88.82
56074;BME280;41950;55.840;37.442;2024-03-25T03:45:17;98208.88;;;2.52;88.84
56074;BME280;41950;55.840;37.442;2024-03-25T03:47:43;98206.25;;;2.58;88.74
56074;BME280;41950;55.840;37.442;2024-03-25T03:50:09;98212.22;;;2.58;88.34
56074;BME280;41950;55.840;37.442;2024-03-25T03:52:35;98213.09;;;2.57;88.29
56074;BME280;41950;55.840;37.442;2024-03-25T03:55:01;98207.28;;;2.38;88.58
56074;BME280;41950;55.840;37.442;2024-03-25T03:57:27;98221.69;;;2.50;88.49
56074;BME280;41950;55.840;37.442;2024-03-25T03:59:53;98212.41;;;2.37;88.46
56074;BME280;41950;55.840;37.442;2024-03-25T04:02:18;98169.97;;;2.10;88.71
56074;BME280;41950;55.840;37.442;2024-03-25T04:04:44;98233.66;;;2.46;88.19
56074;BME280;41950;55.840;37.442;2024-03-25T04:07:10;98244.72;;;2.53;88.62
56074;BME280;41950;55.840;37.442;2024-03-25T04:09:35;98221.72;;;2.44;88.69
56074;BME280;41950;55.840;37.442;2024-03-25T04:12:01;98166.47;;;2.18;88.35
56074;BME280;41950;55.840;37.442;2024-03-25T04:14:27;98166.56;;;2.06;88.33
56074;BME280;41950;55.840;37.442;2024-03-25T04:16:52;98249.03;;;2.48;87.83
56074;BME280;41950;55.840;37.442;2024-03-25T04:19:27;98255.78;;;2.57;88.59
56074;BME280;41950;55.840;37.442;2024-03-25T04:21:53;98246.41;;;2.54;88.10
56074;BME280;41950;55.840;37.442;2024-03-25T04:24:19;98271.88;;;2.69;88.35
56074;BME280;41950;55.840;37.442;2024-03-25T04:26:46;98255.72;;;2.63;87.87
56074;BME280;41950;55.840;37.442;2024-03-25T04:29:11;98269.38;;;2.63;87.67
56074;BME280;41950;55.840;37.442;2024-03-25T04:31:37;98249.00;;;2.53;87.06
56074;BME280;41950;55.840;37.442;2024-03-25T04:34:03;98224.34;;;2.38;86.15
56074;BME280;41950;55.840;37.442;2024-03-25T04:36:30;98255.81;;;2.54;86.23
56074;BME280;41950;55.840;37.442;2024-03-25T04:38:56;98288.06;;;2.73;85.80
56074;BME280;41950;55.840;37.442;2024-03-25T04:41:22;98281.25;;;2.72;85.98
56074;BME280;41950;55.840;37.442;2024-03-25T04:43:48;98288.94;;;2.76;85.66
56074;BME280;41950;55.840;37.442;2024-03-25T04:46:14;98282.16;;;2.68;85.43
56074;BME280;41950;55.840;37.442;2024-03-25T04:48:40;98274.53;;;2.59;85.60
56074;BME280;41950;55.840;37.442;2024-03-25T04:51:06;98295.78;;;2.71;85.42
56074;BME280;41950;55.840;37.442;2024-03-25T04:53:32;98277.06;;;2.63;84.51
56074;BME280;41950;55.840;37.442;2024-03-25T04:55:57;98309.41;;;2.76;84.64
56074;BME280;41950;55.840;37.442;2024-03-25T04:58:23;98297.47;;;2.77;84.58
56074;BME280;41950;55.840;37.442;2024-03-25T05:00:49;98312.69;;;2.91;84.23
56074;BME280;41950;55.840;37.442;2024-03-25T05:03:14;98313.53;;;2.93;84.30
56074;BME280;41950;55.840;37.442;2024-03-25T05:05:40;98322.00;;;3.04;84.33
56074;BME280;41950;55.840;37.442;2024-03-25T05:08:06;98304.13;;;2.93;83.67
56074;BME280;41950;55.840;37.442;2024-03-25T05:10:32;98315.06;;;3.12;83.92
56074;BME280;41950;55.840;37.442;2024-03-25T05:12:57;98347.41;;;3.25;83.57
56074;BME280;41950;55.840;37.442;2024-03-25T05:15:23;98266.00;;;2.60;83.81
56074;BME280;41950;55.840;37.442;2024-03-25T05:17:48;98346.84;;;2.94;84.54
56074;BME280;41950;55.840;37.442;2024-03-25T05:20:14;98353.69;;;2.92;85.30
56074;BME280;41950;55.840;37.442;2024-03-25T05:22:40;98350.28;;;2.92;84.74
56074;BME280;41950;55.840;37.442;2024-03-25T05:25:05;98351.94;;;2.96;84.61
56074;BME280;41950;55.840;37.442;2024-03-25T05:27:31;98343.50;;;2.85;85.02
56074;BME280;41950;55.840;37.442;2024-03-25T05:29:57;98350.25;;;2.95;84.91
56074;BME280;41950;55.840;37.442;2024-03-25T05:32:22;98368.88;;;3.17;84.84
56074;BME280;41950;55.840;37.442;2024-03-25T05:34:48;98367.88;;;3.31;84.51
56074;BME280;41950;55.840;37.442;2024-03-25T05:37:14;98384.00;;;3.42;84.21
56074;BME280;41950;55.840;37.442;2024-03-25T05:39:40;98391.47;;;3.68;83.50
56074;BME280;41950;55.840;37.442;2024-03-25T05:42:05;98349.66;;;3.56;81.65
56074;BME280;41950;55.840;37.442;2024-03-25T05:44:32;98393.03;;;3.79;81.41
56074;BME280;41950;55.840;37.442;2024-03-25T05:46:57;98342.03;;;3.51;80.75
56074;BME280;41950;55.840;37.442;2024-03-25T05:49:23;98339.41;;;3.57;80.86
56074;BME280;41950;55.840;37.442;2024-03-25T05:51:49;98339.34;;;3.63;80.27
56074;BME280;41950;55.840;37.442;2024-03-25T05:54:14;98409.06;;;4.00;79.55
56074;BME280;41950;55.840;37.442;2024-03-25T05:56:40;98416.00;;;3.92;79.68
56074;BME280;41950;55.840;37.442;2024-03-25T05:59:06;98373.50;;;3.67;80.03
56074;BME280;41950;55.840;37.442;2024-03-25T06:01:31;98386.28;;;3.71;79.45
56074;BME280;41950;55.840;37.442;2024-03-25T06:03:57;98411.66;;;3.99;80.13
56074;BME280;41950;55.840;37.442;2024-03-25T06:06:23;98388.72;;;3.82;79.83
56074;BME280;41950;55.840;37.442;2024-03-25T06:08:49;98426.91;;;4.14;80.11
56074;BME280;41950;55.840;37.442;2024-03-25T06:11:16;98369.00;;;3.89;79.27
56074;BME280;41950;55.840;37.442;2024-03-25T06:13:46;98413.34;;;4.00;77.98
56074;BME280;41950;55.840;37.442;2024-03-25T06:16:13;98431.38;;;3.95;78.15
56074;BME280;41950;55.840;37.442;2024-03-25T06:18:39;98422.91;;;3.87;78.01
56074;BME280;41950;55.840;37.442;2024-03-25T06:21:05;98374.50;;;3.52;77.98
56074;BME280;41950;55.840;37.442;2024-03-25T06:23:31;98421.22;;;3.83;78.04
56074;BME280;41950;55.840;37.442;2024-03-25T06:25:57;98450.03;;;4.10;76.99
56074;BME280;41950;55.840;37.442;2024-03-25T06:28:23;98436.25;;;4.18;75.57
56074;BME280;41950;55.840;37.442;2024-03-25T06:30:50;98455.69;;;4.41;75.71
56074;BME280;41950;55.840;37.442;2024-03-25T06:33:34;98468.25;;;4.60;75.52
56074;BME280;41950;55.840;37.442;2024-03-25T06:36:19;98451.09;;;4.62;74.71
56074;BME280;41950;55.840;37.442;2024-03-25T06:38:45;98471.63;;;4.65;74.35
56074;BME280;41950;55.840;37.442;2024-03-25T06:41:10;98481.84;;;4.72;73.83
56074;BME280;41950;55.840;37.442;2024-03-25T06:43:37;98489.50;;;4.75;73.38
56074;BME280;41950;55.840;37.442;2024-03-25T06:46:06;98489.38;;;4.84;73.97
56074;BME280;41950;55.840;37.442;2024-03-25T06:48:33;98367.72;;;4.23;73.05
56074;BME280;41950;55.840;37.442;2024-03-25T06:51:00;98477.50;;;4.75;73.57
56074;BME280;41950;55.840;37.442;2024-03-25T06:53:28;98457.75;;;4.79;73.64
56074;BME280;41950;55.840;37.442;2024-03-25T06:55:59;98471.88;;;5.10;73.11
56074;BME280;41950;55.840;37.442;2024-03-25T06:58:26;98473.75;;;4.99;72.25
56074;BME280;41950;55.840;37.442;2024-03-25T07:00:52;98505.22;;;5.15;72.21
56074;BME280;41950;55.840;37.442;2024-03-25T07:03:19;98502.69;;;5.13;72.21
56074;BME280;41950;55.840;37.442;2024-03-25T07:05:45;98505.91;;;5.29;72.22
56074;BME280;41950;55.840;37.442;2024-03-25T07:08:12;98424.91;;;4.99;71.15
56074;BME280;41950;55.840;37.442;2024-03-25T07:10:38;98520.94;;;5.55;70.49
56074;BME280;41950;55.840;37.442;2024-03-25T07:13:04;98442.13;;;4.94;69.70
56074;BME280;41950;55.840;37.442;2024-03-25T07:15:31;98516.16;;;5.31;68.57
56074;BME280;41950;55.840;37.442;2024-03-25T07:17:56;98523.16;;;5.21;69.11
56074;BME280;41950;55.840;37.442;2024-03-25T07:20:23;98465.16;;;5.02;69.12
56074;BME280;41950;55.840;37.442;2024-03-25T07:22:49;98530.44;;;5.51;68.98
56074;BME280;41950;55.840;37.442;2024-03-25T07:25:14;98531.06;;;5.66;68.14
56074;BME280;41950;55.840;37.442;2024-03-25T07:27:40;98534.88;;;5.40;67.88
56074;BME280;41950;55.840;37.442;2024-03-25T07:30:07;98453.38;;;4.85;68.72
56074;BME280;41950;55.840;37.442;2024-03-25T07:32:34;98533.00;;;5.51;68.84
56074;BME280;41950;55.840;37.442;2024-03-25T07:35:00;98540.22;;;5.83;67.73
56074;BME280;41950;55.840;37.442;2024-03-25T07:37:26;98555.44;;;5.99;67.87
56074;BME280;41950;55.840;37.442;2024-03-25T07:39:51;98554.06;;;5.76;67.33
56074;BME280;41950;55.840;37.442;2024-03-25T07:42:18;98554.06;;;5.75;67.64
56074;BME280;41950;55.840;37.442;2024-03-25T07:44:43;98566.63;;;5.96;66.39
56074;BME280;41950;55.840;37.442;2024-03-25T07:47:09;98559.69;;;6.00;66.97
56074;BME280;41950;55.840;37.442;2024-03-25T07:49:35;98567.22;;;6.12;66.88
56074;BME280;41950;55.840;37.442;2024-03-25T07:52:01;98577.13;;;6.36;65.73
56074;BME280;41950;55.840;37.442;2024-03-25T07:54:27;98552.72;;;6.08;65.51
56074;BME280;41950;55.840;37.442;2024-03-25T07:56:53;98577.44;;;6.18;65.96
56074;BME280;41950;55.840;37.442;2024-03-25T07:59:18;98558.56;;;6.16;66.11
56074;BME280;41950;55.840;37.442;2024-03-25T08:01:44;98567.53;;;5.94;65.45
56074;BME280;41950;55.840;37.442;2024-03-25T08:04:10;98582.09;;;5.96;66.29
56074;BME280;41950;55.840;37.442;2024-03-25T08:06:36;98587.91;;;6.09;66.19
56074;BME280;41950;55.840;37.442;2024-03-25T08:09:01;98603.53;;;5.97;65.76
56074;BME280;41950;55.840;37.442;2024-03-25T08:11:30;98589.09;;;5.85;65.51
56074;BME280;41950;55.840;37.442;2024-03-25T08:13:56;98591.53;;;5.96;65.72
56074;BME280;41950;55.840;37.442;2024-03-25T08:16:22;98598.16;;;6.12;65.30
56074;BME280;41950;55.840;37.442;2024-03-25T08:18:47;98561.50;;;5.95;64.71
56074;BME280;41950;55.840;37.442;2024-03-25T08:21:13;98591.78;;;6.33;64.76
56074;BME280;41950;55.840;37.442;2024-03-25T08:23:39;98594.28;;;6.37;64.12
56074;BME280;41950;55.840;37.442;2024-03-25T08:26:06;98571.28;;;6.25;64.37
56074;BME280;41950;55.840;37.442;2024-03-25T08:28:32;98584.47;;;6.56;63.02
56074;BME280;41950;55.840;37.442;2024-03-25T08:30:58;98590.03;;;6.79;62.40
56074;BME280;41950;55.840;37.442;2024-03-25T08:33:23;98604.34;;;6.96;61.10
56074;BME280;41950;55.840;37.442;2024-03-25T08:35:49;98592.66;;;6.76;61.16
56074;BME280;41950;55.840;37.442;2024-03-25T08:38:15;98580.16;;;6.57;61.22
56074;BME280;41950;55.840;37.442;2024-03-25T08:40:40;98575.03;;;6.55;61.80
56074;BME280;41950;55.840;37.442;2024-03-25T08:43:06;98612.31;;;6.83;61.39
56074;BME280;41950;55.840;37.442;2024-03-25T08:45:32;98554.22;;;6.66;61.24
56074;BME280;41950;55.840;37.442;2024-03-25T08:47:58;98608.19;;;7.18;60.30
56074;BME280;41950;55.840;37.442;2024-03-25T08:50:23;98604.22;;;7.02;60.47
56074;BME280;41950;55.840;37.442;2024-03-25T08:52:49;98600.31;;;6.81;59.70
56074;BME280;41950;55.840;37.442;2024-03-25T08:55:15;98619.94;;;6.90;60.93
56074;BME280;41950;55.840;37.442;2024-03-25T08:57:40;98602.84;;;6.86;59.85
56074;BME280;41950;55.840;37.442;2024-03-25T09:00:06;98590.09;;;6.76;60.04
56074;BME280;41950;55.840;37.442;2024-03-25T09:02:36;98586.34;;;6.48;60.19
56074;BME280;41950;55.840;37.442;2024-03-25T09:05:02;98607.94;;;6.41;61.12
56074;BME280;41950;55.840;37.442;2024-03-25T09:07:35;98607.88;;;6.45;61.25
56074;BME280;41950;55.840;37.442;2024-03-25T09:10:00;98622.97;;;6.65;61.36
56074;BME280;41950;55.840;37.442;2024-03-25T09:12:44;98614.28;;;6.71;61.15
56074;BME280;41950;55.840;37.442;2024-03-25T09:15:10;98615.31;;;6.62;61.30
56074;BME280;41950;55.840;37.442;2024-03-25T09:17:36;98634.34;;;7.00;61.23
56074;BME280;41950;55.840;37.442;2024-03-25T09:20:03;98615.63;;;6.90;61.78
56074;BME280;41950;55.840;37.442;2024-03-25T09:22:45;98638.84;;;6.90;61.56
56074;BME280;41950;55.840;37.442;2024-03-25T09:25:10;98587.31;;;6.42;62.06
56074;BME280;41950;55.840;37.442;2024-03-25T09:27:36;98649.75;;;6.58;61.61
56074;BME280;41950;55.840;37.442;2024-03-25T09:30:02;98649.31;;;6.33;60.98
56074;BME280;41950;55.840;37.442;2024-03-25T09:32:31;98646.53;;;6.45;61.07
56074;BME280;41950;55.840;37.442;2024-03-25T09:34:57;98663.31;;;6.68;60.79
56074;BME280;41950;55.840;37.442;2024-03-25T09:37:23;98623.56;;;6.79;59.72
56074;BME280;41950;55.840;37.442;2024-03-25T09:39:48;98661.53;;;7.18;59.45
56074;BME280;41950;55.840;37.442;2024-03-25T09:42:15;98630.97;;;6.96;59.01
56074;BME280;41950;55.840;37.442;2024-03-25T09:44:44;98644.63;;;7.01;59.65
56074;BME280;41950;55.840;37.442;2024-03-25T09:47:10;98638.00;;;6.90;59.50
56074;BME280;41950;55.840;37.442;2024-03-25T09:49:40;98659.75;;;6.75;58.42
56074;BME280;41950;55.840;37.442;2024-03-25T09:52:07;98631.88;;;6.47;59.93
56074;BME280;41950;55.840;37.442;2024-03-25T09:54:33;98649.63;;;6.66;59.94
56074;BME280;41950;55.840;37.442;2024-03-25T09:57:00;98622.81;;;6.73;59.41
56074;BME280;41950;55.840;37.442;2024-03-25T09:59:26;98665.94;;;7.11;59.27
56074;BME280;41950;55.840;37.442;2024-03-25T10:01:53;98654.72;;;7.13;58.14
56074;BME280;41950;55.840;37.442;2024-03-25T10:04:19;98665.72;;;7.23;57.92
56074;BME280;41950;55.840;37.442;2024-03-25T10:06:45;98661.41;;;7.24;57.74
56074;BME280;41950;55.840;37.442;2024-03-25T10:09:11;98676.72;;;6.88;57.80
56074;BME280;41950;55.840;37.442;2024-03-25T10:11:36;98621.75;;;6.38;59.38
56074;BME280;41950;55.840;37.442;2024-03-25T10:14:02;98669.88;;;6.86;59.47
56074;BME280;41950;55.840;37.442;2024-03-25T10:16:28;98650.84;;;6.93;58.28
56074;BME280;41950;55.840;37.442;2024-03-25T10:18:54;98647.19;;;7.46;57.27
56074;BME280;41950;55.840;37.442;2024-03-25T10:21:20;98654.34;;;8.09;54.82
56074;BME280;41950;55.840;37.442;2024-03-25T10:23:48;98640.13;;;7.91;53.70
56074;BME280;41950;55.840;37.442;2024-03-25T10:26:28;98682.19;;;7.58;54.34
56074;BME280;41950;55.840;37.442;2024-03-25T10:29:04;98674.47;;;7.16;55.87
56074;BME280;41950;55.840;37.442;2024-03-25T10:31:32;98626.97;;;6.80;56.77
56074;BME280;41950;55.840;37.442;2024-03-25T10:33:58;98690.47;;;7.32;56.94
56074;BME280;41950;55.840;37.442;2024-03-25T10:36:25;98675.25;;;7.60;56.46
56074;BME280;41950;55.840;37.442;2024-03-25T10:38:55;98682.25;;;7.95;55.99
56074;BME280;41950;55.840;37.442;2024-03-25T10:41:21;98694.88;;;7.70;55.00
56074;BME280;41950;55.840;37.442;2024-03-25T10:43:48;98665.72;;;7.23;56.24
56074;BME280;41950;55.840;37.442;2024-03-25T10:46:18;98617.50;;;6.82;56.55
56074;BME280;41950;55.840;37.442;2024-03-25T10:48:59;98679.13;;;6.97;57.05
56074;BME280;41950;55.840;37.442;2024-03-25T10:51:27;98701.38;;;7.01;57.72
56074;BME280;41950;55.840;37.442;2024-03-25T10:53:54;98694.59;;;6.97;57.78
56074;BME280;41950;55.840;37.442;2024-03-25T10:56:21;98696.88;;;7.56;57.41
56074;BME280;41950;55.840;37.442;2024-03-25T10:58:49;98692.31;;;8.07;55.05
56074;BME280;41950;55.840;37.442;2024-03-25T11:01:19;98693.44;;;8.68;52.92
56074;BME280;41950;55.840;37.442;2024-03-25T11:03:48;98679.22;;;8.52;52.95
56074;BME280;41950;55.840;37.442;2024-03-25T11:06:15;98681.22;;;8.02;52.90
56074;BME280;41950;55.840;37.442;2024-03-25T11:08:42;98679.66;;;7.56;54.58
56074;BME280;41950;55.840;37.442;2024-03-25T11:11:12;98619.66;;;7.45;54.93
56074;BME280;41950;55.840;37.442;2024-03-25T11:13:38;98674.16;;;8.81;52.55
56074;BME280;41950;55.840;37.442;2024-03-25T11:16:05;98660.69;;;9.30;50.60
56074;BME280;41950;55.840;37.442;2024-03-25T11:18:31;98630.97;;;8.51;51.15
56074;BME280;41950;55.840;37.442;2024-03-25T11:21:06;98691.88;;;8.25;53.00
56074;BME280;41950;55.840;37.442;2024-03-25T11:23:38;98682.31;;;7.92;54.19
56074;BME280;41950;55.840;37.442;2024-03-25T11:26:03;98692.22;;;7.73;55.22
56074;BME280;41950;55.840;37.442;2024-03-25T11:28:29;98698.50;;;7.60;54.42
56074;BME280;41950;55.840;37.442;2024-03-25T11:30:56;98703.16;;;8.23;53.39
56074;BME280;41950;55.840;37.442;2024-03-25T11:33:22;98682.78;;;9.44;50.03
56074;BME280;41950;55.840;37.442;2024-03-25T11:35:50;98690.81;;;10.21;48.12
56074;BME280;41950;55.840;37.442;2024-03-25T11:38:16;98698.28;;;11.33;46.17
56074;BME280;41950;55.840;37.442;2024-03-25T11:40:45;98688.28;;;10.98;44.72
56074;BME280;41950;55.840;37.442;2024-03-25T11:43:18;98689.13;;;10.73;45.82
56074;BME280;41950;55.840;37.442;2024-03-25T11:45:46;98704.97;;;10.91;45.01
56074;BME280;41950;55.840;37.442;2024-03-25T11:48:14;98683.16;;;10.96;44.90
56074;BME280;41950;55.840;37.442;2024-03-25T11:50:39;98702.00;;;11.50;43.68
56074;BME280;41950;55.840;37.442;2024-03-25T11:53:05;98685.19;;;11.60;43.88
56074;BME280;41950;55.840;37.442;2024-03-25T11:55:31;98707.50;;;10.92;43.49
56074;BME280;41950;55.840;37.442;2024-03-25T11:57:57;98709.38;;;9.78;45.72
56074;BME280;41950;55.840;37.442;2024-03-25T12:00:23;98692.09;;;9.79;46.58
56074;BME280;41950;55.840;37.442;2024-03-25T12:02:49;98709.31;;;11.15;44.48
56074;BME280;41950;55.840;37.442;2024-03-25T12:05:17;98695.94;;;11.51;42.47
56074;BME280;41950;55.840;37.442;2024-03-25T12:07:43;98704.97;;;11.87;42.05
56074;BME280;41950;55.840;37.442;2024-03-25T12:10:09;98701.22;;;11.94;42.03
56074;BME280;41950;55.840;37.442;2024-03-25T12:12:55;98690.13;;;12.13;41.30
56074;BME280;41950;55.840;37.442;2024-03-25T12:15:21;98686.56;;;12.15;40.72
56074;BME280;41950;55.840;37.442;2024-03-25T12:17:47;98710.56;;;12.44;40.41
56074;BME280;41950;55.840;37.442;2024-03-25T12:20:14;98702.97;;;13.22;39.90
56074;BME280;41950;55.840;37.442;2024-03-25T12:22:40;98701.63;;;13.90;38.87
56074;BME280;41950;55.840;37.442;2024-03-25T12:25:07;98710.91;;;14.14;38.19
56074;BME280;41950;55.840;37.442;2024-03-25T12:27:34;98710.69;;;14.38;37.02
56074;BME280;41950;55.840;37.442;2024-03-25T12:30:01;98707.84;;;14.42;37.13
56074;BME280;41950;55.840;37.442;2024-03-25T12:32:51;98717.75;;;14.55;36.47
56074;BME280;41950;55.840;37.442;2024-03-25T12:35:18;98709.59;;;14.25;37.49
56074;BME280;41950;55.840;37.442;2024-03-25T12:37:46;98703.28;;;14.65;36.41
56074;BME280;41950;55.840;37.442;2024-03-25T12:40:14;98648.97;;;14.01;36.16
56074;BME280;41950;55.840;37.442;2024-03-25T12:42:52;98717.88;;;14.33;36.21
56074;BME280;41950;55.840;37.442;2024-03-25T12:45:19;98717.97;;;14.31;35.89
56074;BME280;41950;55.840;37.442;2024-03-25T12:47:45;98698.38;;;14.40;36.88
56074;BME280;41950;55.840;37.442;2024-03-25T12:50:10;98695.47;;;14.82;36.12
56074;BME280;41950;55.840;37.442;2024-03-25T12:52:36;98698.72;;;15.37;35.40
56074;BME280;41950;55.840;37.442;2024-03-25T12:55:02;98663.03;;;14.69;34.69
56074;BME280;41950;55.840;37.442;2024-03-25T12:57:29;98702.88;;;14.19;35.14